sensor_id;sensor_type;location;lat;lon;timestamp;pressure;altitude;pressure_sealevel;temperature;humidity
51928;BME280;37953;52.806;18.270;2023-02-14T00:02:10;102410.97;;;4.77;100.00
51928;BME280;37953;52.806;18.270;2023-02-14T00:04:36;102415.13;;;4.75;100.00
51928;BME280;37953;52.806;18.270;2023-02-14T00:07:06;102416.81;;;4.75;100.00
51928;BME280;37953;52.806;18.270;2023-02-14T00:09:32;102424.47;;;4.73;100.00
51928;BME280;37953;52.806;18.270;2023-02-14T00:11:58;102430.31;;;4.71;100.00
51928;BME280;37953;52.806;18.270;2023-02-14T00:14:23;102427.66;;;4.69;100.00
51928;BME280;37953;52.806;18.270;2023-02-14T00:17:08;102418.94;;;4.67;100.00
51928;BME280;37953;52.806;18.270;2023-02-14T00:19:33;102422.25;;;4.64;100.00
51928;BME280;37953;52.806;18.270;2023-02-14T00:22:01;102420.38;;;4.62;100.00
51928;BME280;37953;52.806;18.270;2023-02-14T00:24:26;102425.44;;;4.60;100.00
51928;BME280;37953;52.806;18.270;2023-02-14T00:26:52;102425.34;;;4.59;100.00
51928;BME280;37953;52.806;18.270;2023-02-14T00:29:22;102427.75;;;4.56;100.00
51928;BME280;37953;52.806;18.270;2023-02-14T00:31:49;102432.88;;;4.56;100.00
51928;BME280;37953;52.806;18.270;2023-02-14T00:34:15;102433.59;;;4.53;100.00
51928;BME280;37953;52.806;18.270;2023-02-14T00:36:41;102440.41;;;4.53;100.00
51928;BME280;37953;52.806;18.270;2023-02-14T00:39:07;102438.66;;;4.52;100.00
51928;BME280;37953;52.806;18.270;2023-02-14T00:41:34;102438.56;;;4.50;100.00
51928;BME280;37953;52.806;18.270;2023-02-14T00:43:59;102438.56;;;4.50;100.00
51928;BME280;37953;52.806;18.270;2023-02-14T00:46:26;102443.69;;;4.50;100.00
51928;BME280;37953;52.806;18.270;2023-02-14T00:48:51;102439.44;;;4.51;100.00
51928;BME280;37953;52.806;18.270;2023-02-14T00:51:18;102441.22;;;4.52;100.00
51928;BME280;37953;52.806;18.270;2023-02-14T00:53:44;102444.78;;;4.54;100.00
51928;BME280;37953;52.806;18.270;2023-02-14T00:56:11;102439.63;;;4.54;100.00
51928;BME280;37953;52.806;18.270;2023-02-14T00:58:38;102434.47;;;4.54;100.00
51928;BME280;37953;52.806;18.270;2023-02-14T01:01:09;102439.63;;;4.54;100.00
51928;BME280;37953;52.806;18.270;2023-02-14T01:03:35;102439.63;;;4.54;100.00
51928;BME280;37953;52.806;18.270;2023-02-14T01:06:01;102440.50;;;4.54;100.00
51928;BME280;37953;52.806;18.270;2023-02-14T01:08:27;102439.63;;;4.54;100.00
51928;BME280;37953;52.806;18.270;2023-02-14T01:10:52;102452.59;;;4.55;100.00
51928;BME280;37953;52.806;18.270;2023-02-14T01:13:18;102445.66;;;4.54;100.00
51928;BME280;37953;52.806;18.270;2023-02-14T01:15:45;102437.06;;;4.54;100.00
51928;BME280;37953;52.806;18.270;2023-02-14T01:18:11;102441.38;;;4.55;100.00
51928;BME280;37953;52.806;18.270;2023-02-14T01:20:37;102445.75;;;4.56;100.00
51928;BME280;37953;52.806;18.270;2023-02-14T01:23:03;102438.03;;;4.56;100.00
51928;BME280;37953;52.806;18.270;2023-02-14T01:25:29;102438.03;;;4.56;100.00
51928;BME280;37953;52.806;18.270;2023-02-14T01:27:55;102435.56;;;4.57;100.00
51928;BME280;37953;52.806;18.270;2023-02-14T01:30:21;102424.34;;;4.57;100.00
51928;BME280;37953;52.806;18.270;2023-02-14T01:32:47;102421.00;;;4.58;100.00
51928;BME280;37953;52.806;18.270;2023-02-14T01:35:13;102420.13;;;4.57;100.00
51928;BME280;37953;52.806;18.270;2023-02-14T01:37:39;102420.13;;;4.57;100.00
51928;BME280;37953;52.806;18.270;2023-02-14T01:40:05;102422.59;;;4.56;100.00
51928;BME280;37953;52.806;18.270;2023-02-14T01:42:33;102427.63;;;4.54;100.00
51928;BME280;37953;52.806;18.270;2023-02-14T01:45:06;102431.91;;;4.54;100.00
51928;BME280;37953;52.806;18.270;2023-02-14T01:47:36;102436.97;;;4.52;100.00
51928;BME280;37953;52.806;18.270;2023-02-14T01:50:04;102436.97;;;4.52;100.00
51928;BME280;37953;52.806;18.270;2023-02-14T01:52:43;102437.84;;;4.53;100.00
51928;BME280;37953;52.806;18.270;2023-02-14T01:55:11;102442.09;;;4.52;100.00
51928;BME280;37953;52.806;18.270;2023-02-14T02:00:30;102435.88;;;4.48;100.00
51928;BME280;37953;52.806;18.270;2023-02-14T02:03:15;102439.25;;;4.47;100.00
51928;BME280;37953;52.806;18.270;2023-02-14T02:05:43;102435.88;;;4.48;100.00
51928;BME280;37953;52.806;18.270;2023-02-14T02:08:10;102440.16;;;4.48;100.00
51928;BME280;37953;52.806;18.270;2023-02-14T02:10:36;102439.25;;;4.47;100.00
51928;BME280;37953;52.806;18.270;2023-02-14T02:13:03;102434.13;;;4.47;100.00
51928;BME280;37953;52.806;18.270;2023-02-14T02:15:30;102436.69;;;4.47;100.00
51928;BME280;37953;52.806;18.270;2023-02-14T02:18:05;102437.56;;;4.48;100.00
51928;BME280;37953;52.806;18.270;2023-02-14T02:23:07;102437.47;;;4.46;100.00
51928;BME280;37953;52.806;18.270;2023-02-14T02:36:23;102435.88;;;4.48;100.00
51928;BME280;37953;52.806;18.270;2023-02-14T02:52:48;102423.00;;;4.48;100.00
51928;BME280;37953;52.806;18.270;2023-02-14T02:55:15;102420.53;;;4.50;100.00
51928;BME280;37953;52.806;18.270;2023-02-14T02:57:42;102411.94;;;4.49;100.00
51928;BME280;37953;52.806;18.270;2023-02-14T03:00:10;102417.09;;;4.49;100.00
51928;BME280;37953;52.806;18.270;2023-02-14T03:02:41;102425.69;;;4.50;100.00
51928;BME280;37953;52.806;18.270;2023-02-14T03:05:34;102435.97;;;4.50;100.00
51928;BME280;37953;52.806;18.270;2023-02-14T03:08:01;102428.25;;;4.50;100.00
51928;BME280;37953;52.806;18.270;2023-02-14T03:10:34;102436.78;;;4.49;100.00
51928;BME280;37953;52.806;18.270;2023-02-14T03:15:50;102437.56;;;4.48;100.00
51928;BME280;37953;52.806;18.270;2023-02-14T03:24:07;102451.53;;;4.52;100.00
51928;BME280;37953;52.806;18.270;2023-02-14T03:29:55;102453.28;;;4.53;100.00
51928;BME280;37953;52.806;18.270;2023-02-14T03:37:31;102462.78;;;4.54;100.00
51928;BME280;37953;52.806;18.270;2023-02-14T03:40:05;102468.81;;;4.54;100.00
51928;BME280;37953;52.806;18.270;2023-02-14T03:42:35;102469.69;;;4.55;100.00
51928;BME280;37953;52.806;18.270;2023-02-14T03:45:03;102466.25;;;4.54;100.00
51928;BME280;37953;52.806;18.270;2023-02-14T03:47:31;102461.97;;;4.55;100.00
51928;BME280;37953;52.806;18.270;2023-02-14T03:50:04;102459.41;;;4.55;100.00
51928;BME280;37953;52.806;18.270;2023-02-14T03:52:32;102468.03;;;4.55;100.00
51928;BME280;37953;52.806;18.270;2023-02-14T03:54:58;102470.50;;;4.54;100.00
51928;BME280;37953;52.806;18.270;2023-02-14T03:57:27;102466.16;;;4.53;100.00
51928;BME280;37953;52.806;18.270;2023-02-14T03:59:54;102461.81;;;4.52;100.00
51928;BME280;37953;52.806;18.270;2023-02-14T04:02:34;102466.09;;;4.51;100.00
51928;BME280;37953;52.806;18.270;2023-02-14T04:05:02;102475.47;;;4.51;100.00
51928;BME280;37953;52.806;18.270;2023-02-14T04:07:30;102473.81;;;4.51;100.00
51928;BME280;37953;52.806;18.270;2023-02-14T04:09:56;102463.50;;;4.51;100.00
51928;BME280;37953;52.806;18.270;2023-02-14T04:12:24;102468.66;;;4.51;100.00
51928;BME280;37953;52.806;18.270;2023-02-14T04:14:50;102468.56;;;4.49;100.00
51928;BME280;37953;52.806;18.270;2023-02-14T04:17:16;102465.97;;;4.49;100.00
51928;BME280;37953;52.806;18.270;2023-02-14T04:20:00;102454.81;;;4.49;100.00
51928;BME280;37953;52.806;18.270;2023-02-14T04:22:32;102451.41;;;4.50;100.00
51928;BME280;37953;52.806;18.270;2023-02-14T04:24:58;102456.47;;;4.48;100.00
51928;BME280;37953;52.806;18.270;2023-02-14T04:27:24;102464.19;;;4.48;100.00
51928;BME280;37953;52.806;18.270;2023-02-14T04:29:49;102461.63;;;4.48;100.00
51928;BME280;37953;52.806;18.270;2023-02-14T04:32:19;102462.44;;;4.47;100.00
51928;BME280;37953;52.806;18.270;2023-02-14T04:34:52;102465.78;;;4.46;100.00
51928;BME280;37953;52.806;18.270;2023-02-14T04:37:18;102457.06;;;4.44;100.00
51928;BME280;37953;52.806;18.270;2023-02-14T04:39:44;102461.28;;;4.42;100.00
51928;BME280;37953;52.806;18.270;2023-02-14T04:42:10;102459.47;;;4.41;100.00
51928;BME280;37953;52.806;18.270;2023-02-14T04:44:39;102455.16;;;4.40;100.00
51928;BME280;37953;52.806;18.270;2023-02-14T04:47:05;102462.88;;;4.40;100.00
51928;BME280;37953;52.806;18.270;2023-02-14T04:49:31;102462.94;;;4.42;100.00
51928;BME280;37953;52.806;18.270;2023-02-14T04:51:57;102466.44;;;4.42;100.00
51928;BME280;37953;52.806;18.270;2023-02-14T04:54:23;102480.16;;;4.43;100.00
51928;BME280;37953;52.806;18.270;2023-02-14T04:56:49;102468.09;;;4.42;100.00
51928;BME280;37953;52.806;18.270;2023-02-14T04:59:15;102478.47;;;4.43;100.00
51928;BME280;37953;52.806;18.270;2023-02-14T05:01:41;102468.09;;;4.42;100.00
51928;BME280;37953;52.806;18.270;2023-02-14T05:04:06;102469.88;;;4.43;100.00
51928;BME280;37953;52.806;18.270;2023-02-14T05:06:33;102467.31;;;4.43;100.00
51928;BME280;37953;52.806;18.270;2023-02-14T05:08:59;102465.63;;;4.43;100.00
51928;BME280;37953;52.806;18.270;2023-02-14T05:11:25;102472.53;;;4.44;100.00
51928;BME280;37953;52.806;18.270;2023-02-14T05:13:51;102478.59;;;4.45;100.00
51928;BME280;37953;52.806;18.270;2023-02-14T05:16:17;102471.63;;;4.44;100.00
51928;BME280;37953;52.806;18.270;2023-02-14T05:18:42;102466.50;;;4.44;100.00
51928;BME280;37953;52.806;18.270;2023-02-14T05:21:08;102474.16;;;4.42;100.00
51928;BME280;37953;52.806;18.270;2023-02-14T05:23:35;102483.63;;;4.43;100.00
51928;BME280;37953;52.806;18.270;2023-02-14T05:26:01;102475.91;;;4.43;100.00
51928;BME280;37953;52.806;18.270;2023-02-14T05:28:26;102464.03;;;4.45;100.00
51928;BME280;37953;52.806;18.270;2023-02-14T05:30:52;102459.75;;;4.46;100.00
51928;BME280;37953;52.806;18.270;2023-02-14T05:33:18;102468.34;;;4.46;100.00
51928;BME280;37953;52.806;18.270;2023-02-14T05:35:46;102477.06;;;4.48;100.00
51928;BME280;37953;52.806;18.270;2023-02-14T05:38:11;102478.03;;;4.51;100.00
51928;BME280;37953;52.806;18.270;2023-02-14T05:40:38;102477.25;;;4.52;100.00
51928;BME280;37953;52.806;18.270;2023-02-14T05:43:04;102479.94;;;4.53;100.00
51928;BME280;37953;52.806;18.270;2023-02-14T05:45:30;102473.09;;;4.54;100.00
51928;BME280;37953;52.806;18.270;2023-02-14T05:47:56;102478.34;;;4.55;100.00
51928;BME280;37953;52.806;18.270;2023-02-14T05:50:22;102480.00;;;4.55;100.00
51928;BME280;37953;52.806;18.270;2023-02-14T05:52:48;102482.69;;;4.56;100.00
51928;BME280;37953;52.806;18.270;2023-02-14T05:55:13;102487.91;;;4.58;100.00
51928;BME280;37953;52.806;18.270;2023-02-14T05:57:39;102481.19;;;4.60;100.00
51928;BME280;37953;52.806;18.270;2023-02-14T06:00:06;102476.91;;;4.60;100.00
51928;BME280;37953;52.806;18.270;2023-02-14T06:02:32;102481.97;;;4.59;100.00
51928;BME280;37953;52.806;18.270;2023-02-14T06:04:58;102483.75;;;4.60;100.00
51928;BME280;37953;52.806;18.270;2023-02-14T06:07:23;102493.16;;;4.59;100.00
51928;BME280;37953;52.806;18.270;2023-02-14T06:09:49;102486.31;;;4.60;100.00
51928;BME280;37953;52.806;18.270;2023-02-14T06:12:15;102488.81;;;4.58;100.00
51928;BME280;37953;52.806;18.270;2023-02-14T06:14:41;102494.06;;;4.60;100.00
51928;BME280;37953;52.806;18.270;2023-02-14T06:17:07;102499.19;;;4.60;100.00
51928;BME280;37953;52.806;18.270;2023-02-14T06:19:33;102512.06;;;4.60;100.00
51928;BME280;37953;52.806;18.270;2023-02-14T06:21:59;102518.91;;;4.59;100.00
51928;BME280;37953;52.806;18.270;2023-02-14T06:24:28;102502.56;;;4.59;100.00
51928;BME280;37953;52.806;18.270;2023-02-14T06:26:54;102512.06;;;4.60;100.00
51928;BME280;37953;52.806;18.270;2023-02-14T06:29:19;102524.94;;;4.60;100.00
51928;BME280;37953;52.806;18.270;2023-02-14T06:31:45;102525.81;;;4.60;100.00
51928;BME280;37953;52.806;18.270;2023-02-14T06:34:11;102525.00;;;4.61;100.00
51928;BME280;37953;52.806;18.270;2023-02-14T06:36:37;102521.75;;;4.64;100.00
51928;BME280;37953;52.806;18.270;2023-02-14T06:39:03;102529.47;;;4.64;100.00
51928;BME280;37953;52.806;18.270;2023-02-14T06:41:28;102525.31;;;4.66;100.00
51928;BME280;37953;52.806;18.270;2023-02-14T06:43:58;102520.22;;;4.67;100.00
51928;BME280;37953;52.806;18.270;2023-02-14T06:46:23;102521.03;;;4.66;100.00
51928;BME280;37953;52.806;18.270;2023-02-14T06:48:49;102521.16;;;4.68;100.00
51928;BME280;37953;52.806;18.270;2023-02-14T06:51:15;102514.19;;;4.67;100.00
51928;BME280;37953;52.806;18.270;2023-02-14T06:53:41;102516.06;;;4.69;100.00
51928;BME280;37953;52.806;18.270;2023-02-14T06:56:06;102518.63;;;4.69;100.00
51928;BME280;37953;52.806;18.270;2023-02-14T06:58:33;102517.84;;;4.71;100.00
51928;BME280;37953;52.806;18.270;2023-02-14T07:00:59;102531.72;;;4.73;100.00
51928;BME280;37953;52.806;18.270;2023-02-14T07:03:25;102530.91;;;4.74;100.00
51928;BME280;37953;52.806;18.270;2023-02-14T07:05:51;102528.41;;;4.75;100.00
51928;BME280;37953;52.806;18.270;2023-02-14T07:08:17;102537.03;;;4.76;100.00
51928;BME280;37953;52.806;18.270;2023-02-14T07:10:43;102543.06;;;4.76;100.00
51928;BME280;37953;52.806;18.270;2023-02-14T07:13:09;102538.81;;;4.77;100.00
51928;BME280;37953;52.806;18.270;2023-02-14T07:15:35;102532.84;;;4.78;100.00
51928;BME280;37953;52.806;18.270;2023-02-14T07:18:01;102540.69;;;4.79;100.00
51928;BME280;37953;52.806;18.270;2023-02-14T07:20:26;102545.94;;;4.81;100.00
51928;BME280;37953;52.806;18.270;2023-02-14T07:22:53;102544.13;;;4.80;100.00
51928;BME280;37953;52.806;18.270;2023-02-14T07:25:19;102543.34;;;4.81;100.00
51928;BME280;37953;52.806;18.270;2023-02-14T07:27:45;102538.22;;;4.81;100.00
51928;BME280;37953;52.806;18.270;2023-02-14T07:30:11;102545.13;;;4.82;100.00
51928;BME280;37953;52.806;18.270;2023-02-14T07:32:37;102559.78;;;4.83;100.00
51928;BME280;37953;52.806;18.270;2023-02-14T07:35:03;102548.69;;;4.84;100.00
51928;BME280;37953;52.806;18.270;2023-02-14T07:37:33;102549.56;;;4.84;100.00
51928;BME280;37953;52.806;18.270;2023-02-14T07:39:59;102552.22;;;4.86;100.00
51928;BME280;37953;52.806;18.270;2023-02-14T07:42:25;102546.38;;;4.88;100.00
51928;BME280;37953;52.806;18.270;2023-02-14T07:44:51;102545.50;;;4.88;100.00
51928;BME280;37953;52.806;18.270;2023-02-14T07:47:17;102560.22;;;4.90;100.00
51928;BME280;37953;52.806;18.270;2023-02-14T07:49:43;102560.22;;;4.90;100.00
51928;BME280;37953;52.806;18.270;2023-02-14T07:52:09;102561.13;;;4.91;100.00
51928;BME280;37953;52.806;18.270;2023-02-14T07:54:34;102562.09;;;4.93;100.00
51928;BME280;37953;52.806;18.270;2023-02-14T07:57:00;102556.94;;;4.93;100.00
51928;BME280;37953;52.806;18.270;2023-02-14T07:59:26;102562.19;;;4.95;100.00
51928;BME280;37953;52.806;18.270;2023-02-14T08:01:52;102551.00;;;4.94;100.00
51928;BME280;37953;52.806;18.270;2023-02-14T08:04:18;102546.84;;;4.96;100.00
51928;BME280;37953;52.806;18.270;2023-02-14T08:06:51;102558.03;;;4.97;100.00
51928;BME280;37953;52.806;18.270;2023-02-14T08:09:17;102559.00;;;4.99;100.00
51928;BME280;37953;52.806;18.270;2023-02-14T08:11:57;102571.09;;;5.00;100.00
51928;BME280;37953;52.806;18.270;2023-02-14T08:14:42;102568.59;;;5.01;100.00
51928;BME280;37953;52.806;18.270;2023-02-14T08:17:08;102561.78;;;5.02;100.00
51928;BME280;37953;52.806;18.270;2023-02-14T08:19:40;102569.56;;;5.03;100.00
51928;BME280;37953;52.806;18.270;2023-02-14T08:22:06;102573.13;;;5.05;100.00
51928;BME280;37953;52.806;18.270;2023-02-14T08:24:32;102570.53;;;5.05;100.00
51928;BME280;37953;52.806;18.270;2023-02-14T08:26:58;102573.31;;;5.08;100.00
51928;BME280;37953;52.806;18.270;2023-02-14T08:29:24;102574.19;;;5.09;100.00
51928;BME280;37953;52.806;18.270;2023-02-14T08:31:50;102585.50;;;5.11;100.00
51928;BME280;37953;52.806;18.270;2023-02-14T08:34:17;102582.09;;;5.12;100.00
51928;BME280;37953;52.806;18.270;2023-02-14T08:36:43;102579.63;;;5.14;100.00
51928;BME280;37953;52.806;18.270;2023-02-14T08:39:08;102582.19;;;5.14;100.00
51928;BME280;37953;52.806;18.270;2023-02-14T08:41:34;102577.84;;;5.13;100.00
51928;BME280;37953;52.806;18.270;2023-02-14T08:44:00;102570.19;;;5.14;100.00
51928;BME280;37953;52.806;18.270;2023-02-14T08:46:27;102577.16;;;5.15;100.00
51928;BME280;37953;52.806;18.270;2023-02-14T08:48:53;102584.00;;;5.15;100.00
51928;BME280;37953;52.806;18.270;2023-02-14T08:51:19;102583.19;;;5.16;100.00
51928;BME280;37953;52.806;18.270;2023-02-14T08:53:48;102575.53;;;5.17;100.00
51928;BME280;37953;52.806;18.270;2023-02-14T08:56:14;102579.81;;;5.17;100.00
51928;BME280;37953;52.806;18.270;2023-02-14T08:58:40;102582.56;;;5.20;100.00
51928;BME280;37953;52.806;18.270;2023-02-14T09:03:34;102580.19;;;5.23;100.00
51928;BME280;37953;52.806;18.270;2023-02-14T09:06:03;102581.16;;;5.25;100.00
51928;BME280;37953;52.806;18.270;2023-02-14T09:08:30;102582.09;;;5.27;100.00
51928;BME280;37953;52.806;18.270;2023-02-14T09:10:56;102588.19;;;5.27;100.00
51928;BME280;37953;52.806;18.270;2023-02-14T09:13:22;102589.16;;;5.29;100.00
51928;BME280;37953;52.806;18.270;2023-02-14T09:15:48;102590.91;;;5.30;100.00
51928;BME280;37953;52.806;18.270;2023-02-14T09:18:14;102600.44;;;5.32;100.00
51928;BME280;37953;52.806;18.270;2023-02-14T09:20:41;102597.06;;;5.33;100.00
51928;BME280;37953;52.806;18.270;2023-02-14T09:23:09;102596.28;;;5.34;100.00
51928;BME280;37953;52.806;18.270;2023-02-14T09:25:35;102603.19;;;5.35;100.00
51928;BME280;37953;52.806;18.270;2023-02-14T09:28:01;102604.16;;;5.37;100.00
51928;BME280;37953;52.806;18.270;2023-02-14T09:30:27;102607.63;;;5.37;100.00
51928;BME280;37953;52.806;18.270;2023-02-14T09:32:53;102611.13;;;5.38;100.00
51928;BME280;37953;52.806;18.270;2023-02-14T09:35:19;102602.66;;;5.40;100.00
51928;BME280;37953;52.806;18.270;2023-02-14T09:38:03;102619.00;;;5.41;100.00
51928;BME280;37953;52.806;18.270;2023-02-14T09:40:41;102607.88;;;5.42;100.00
51928;BME280;37953;52.806;18.270;2023-02-14T09:46:12;102603.72;;;5.44;100.00
51928;BME280;37953;52.806;18.270;2023-02-14T09:48:40;102605.50;;;5.45;100.00
51928;BME280;37953;52.806;18.270;2023-02-14T09:51:15;102620.09;;;5.44;100.00
51928;BME280;37953;52.806;18.270;2023-02-14T09:53:44;102614.13;;;5.45;100.00
51928;BME280;37953;52.806;18.270;2023-02-14T09:56:15;102619.28;;;5.45;100.00
51928;BME280;37953;52.806;18.270;2023-02-14T10:01:12;102619.38;;;5.47;100.00
51928;BME280;37953;52.806;18.270;2023-02-14T10:09:12;102601.69;;;5.53;100.00
51928;BME280;37953;52.806;18.270;2023-02-14T10:11:44;102599.19;;;5.55;100.00
51928;BME280;37953;52.806;18.270;2023-02-14T10:14:14;102609.69;;;5.58;100.00
51928;BME280;37953;52.806;18.270;2023-02-14T10:16:43;102610.66;;;5.60;100.00
51928;BME280;37953;52.806;18.270;2023-02-14T10:19:21;102594.47;;;5.62;100.00
51928;BME280;37953;52.806;18.270;2023-02-14T10:21:52;102585.94;;;5.63;100.00
51928;BME280;37953;52.806;18.270;2023-02-14T10:26:48;102592.25;;;5.68;100.00
51928;BME280;37953;52.806;18.270;2023-02-14T10:29:15;102588.88;;;5.69;100.00
51928;BME280;37953;52.806;18.270;2023-02-14T10:52:43;102574.97;;;5.82;100.00
51928;BME280;37953;52.806;18.270;2023-02-14T10:55:32;102571.56;;;5.83;100.00
51928;BME280;37953;52.806;18.270;2023-02-14T10:58:10;102582.00;;;5.85;100.00
51928;BME280;37953;52.806;18.270;2023-02-14T11:00:37;102586.34;;;5.86;100.00
51928;BME280;37953;52.806;18.270;2023-02-14T11:03:05;102582.97;;;5.87;100.00
51928;BME280;37953;52.806;18.270;2023-02-14T11:05:35;102576.09;;;5.87;100.00
51928;BME280;37953;52.806;18.270;2023-02-14T11:08:18;102583.84;;;5.87;100.00
51928;BME280;37953;52.806;18.270;2023-02-14T11:10:57;102585.63;;;5.88;100.00
51928;BME280;37953;52.806;18.270;2023-02-14T11:13:28;102581.38;;;5.89;100.00
51928;BME280;37953;52.806;18.270;2023-02-14T11:16:02;102570.22;;;5.90;100.00
51928;BME280;37953;52.806;18.270;2023-02-14T11:18:29;102559.84;;;5.88;100.00
51928;BME280;37953;52.806;18.270;2023-02-14T11:21:01;102567.66;;;5.90;100.00
51928;BME280;37953;52.806;18.270;2023-02-14T11:23:31;102570.31;;;5.91;100.00
51928;BME280;37953;52.806;18.270;2023-02-14T11:25:57;102563.47;;;5.92;100.00
51928;BME280;37953;52.806;18.270;2023-02-14T11:28:24;102568.72;;;5.94;100.00
51928;BME280;37953;52.806;18.270;2023-02-14T11:30:51;102567.13;;;5.96;100.00
51928;BME280;37953;52.806;18.270;2023-02-14T11:33:28;102574.97;;;5.97;100.00
51928;BME280;37953;52.806;18.270;2023-02-14T11:36:08;102563.06;;;5.99;100.00
51928;BME280;37953;52.806;18.270;2023-02-14T11:38:35;102565.69;;;6.01;100.00
51928;BME280;37953;52.806;18.270;2023-02-14T11:41:03;102570.16;;;6.03;100.00
51928;BME280;37953;52.806;18.270;2023-02-14T11:43:35;102566.84;;;6.06;100.00
51928;BME280;37953;52.806;18.270;2023-02-14T11:48:36;102575.56;;;6.08;100.00
51928;BME280;37953;52.806;18.270;2023-02-14T11:53:38;102557.50;;;6.08;100.00
51928;BME280;37953;52.806;18.270;2023-02-14T11:56:25;102561.75;;;6.07;100.00
51928;BME280;37953;52.806;18.270;2023-02-14T11:59:11;102559.25;;;6.09;100.00
51928;BME280;37953;52.806;18.270;2023-02-14T12:01:39;102554.97;;;6.09;100.00
51928;BME280;37953;52.806;18.270;2023-02-14T12:04:05;102554.19;;;6.10;100.00
51928;BME280;37953;52.806;18.270;2023-02-14T12:06:32;102554.28;;;6.12;100.00
51928;BME280;37953;52.806;18.270;2023-02-14T12:11:53;102550.00;;;6.13;100.00
51928;BME280;37953;52.806;18.270;2023-02-14T12:14:20;102548.41;;;6.15;100.00
51928;BME280;37953;52.806;18.270;2023-02-14T12:16:52;102549.28;;;6.15;100.00
51928;BME280;37953;52.806;18.270;2023-02-14T12:19:21;102551.94;;;6.17;100.00
51928;BME280;37953;52.806;18.270;2023-02-14T12:21:50;102549.28;;;6.15;100.00
51928;BME280;37953;52.806;18.270;2023-02-14T12:29:53;102540.09;;;6.20;100.00
51928;BME280;37953;52.806;18.270;2023-02-14T12:32:25;102540.16;;;6.22;100.00
51928;BME280;37953;52.806;18.270;2023-02-14T12:35:05;102538.56;;;6.24;100.00
51928;BME280;37953;52.806;18.270;2023-02-14T12:43:19;102540.69;;;6.31;100.00
51928;BME280;37953;52.806;18.270;2023-02-14T12:53:37;102529.53;;;6.32;100.00
51928;BME280;37953;52.806;18.270;2023-02-14T13:09:07;102521.97;;;6.35;100.00
51928;BME280;37953;52.806;18.270;2023-02-14T13:19:39;102526.31;;;6.36;100.00
51928;BME280;37953;52.806;18.270;2023-02-14T13:22:10;102532.34;;;6.37;100.00
51928;BME280;37953;52.806;18.270;2023-02-14T13:24:38;102524.63;;;6.37;100.00
51928;BME280;37953;52.806;18.270;2023-02-14T13:27:05;102528.09;;;6.37;100.00
51928;BME280;37953;52.806;18.270;2023-02-14T13:29:40;102525.53;;;6.37;100.00
51928;BME280;37953;52.806;18.270;2023-02-14T13:32:08;102520.34;;;6.37;100.00
51928;BME280;37953;52.806;18.270;2023-02-14T13:34:45;102512.63;;;6.37;100.00
51928;BME280;37953;52.806;18.270;2023-02-14T13:37:12;102518.75;;;6.39;100.00
51928;BME280;37953;52.806;18.270;2023-02-14T13:39:47;102521.34;;;6.39;100.00
51928;BME280;37953;52.806;18.270;2023-02-14T13:45:00;102505.84;;;6.39;100.00
51928;BME280;37953;52.806;18.270;2023-02-14T13:47:25;102511.00;;;6.39;100.00
51928;BME280;37953;52.806;18.270;2023-02-14T13:55:02;102513.66;;;6.41;100.00
51928;BME280;37953;52.806;18.270;2023-02-14T14:10:46;102510.50;;;6.46;100.00
51928;BME280;37953;52.806;18.270;2023-02-14T14:18:41;102508.97;;;6.50;100.00
51928;BME280;37953;52.806;18.270;2023-02-14T14:21:14;102502.13;;;6.50;100.00
51928;BME280;37953;52.806;18.270;2023-02-14T14:23:40;102503.00;;;6.51;100.00
51928;BME280;37953;52.806;18.270;2023-02-14T14:28:50;102498.81;;;6.53;100.00
51928;BME280;37953;52.806;18.270;2023-02-14T14:31:18;102493.72;;;6.55;100.00
51928;BME280;37953;52.806;18.270;2023-02-14T14:33:44;102488.56;;;6.55;100.00
51928;BME280;37953;52.806;18.270;2023-02-14T14:36:19;102488.66;;;6.56;100.00
51928;BME280;37953;52.806;18.270;2023-02-14T14:38:51;102482.66;;;6.57;100.00
51928;BME280;37953;52.806;18.270;2023-02-14T14:41:19;102488.69;;;6.58;100.00
51928;BME280;37953;52.806;18.270;2023-02-14T14:43:51;102487.91;;;6.59;100.00
51928;BME280;37953;52.806;18.270;2023-02-14T14:46:17;102482.75;;;6.59;100.00
51928;BME280;37953;52.806;18.270;2023-02-14T14:48:46;102479.25;;;6.58;100.00
51928;BME280;37953;52.806;18.270;2023-02-14T14:51:26;102486.22;;;6.59;100.00
51928;BME280;37953;52.806;18.270;2023-02-14T14:58:50;102489.75;;;6.61;100.00
51928;BME280;37953;52.806;18.270;2023-02-14T15:01:29;102485.38;;;6.60;100.00
51928;BME280;37953;52.806;18.270;2023-02-14T15:04:37;102483.72;;;6.61;100.00
51928;BME280;37953;52.806;18.270;2023-02-14T15:06:46;102486.28;;;6.61;100.00
51928;BME280;37953;52.806;18.270;2023-02-14T15:09:13;102482.00;;;6.61;100.00
51928;BME280;37953;52.806;18.270;2023-02-14T15:11:39;102478.53;;;6.61;100.00
51928;BME280;37953;52.806;18.270;2023-02-14T15:14:25;102482.00;;;6.61;100.00
51928;BME280;37953;52.806;18.270;2023-02-14T15:16:59;102485.38;;;6.60;100.00
51928;BME280;37953;52.806;18.270;2023-02-14T15:19:41;102482.00;;;6.61;100.00
51928;BME280;37953;52.806;18.270;2023-02-14T15:22:18;102472.47;;;6.60;100.00
51928;BME280;37953;52.806;18.270;2023-02-14T15:24:44;102475.88;;;6.59;100.00
51928;BME280;37953;52.806;18.270;2023-02-14T15:27:15;102471.50;;;6.58;100.00
51928;BME280;37953;52.806;18.270;2023-02-14T15:29:41;102478.38;;;6.58;100.00
51928;BME280;37953;52.806;18.270;2023-02-14T15:32:07;102469.75;;;6.57;100.00
51928;BME280;37953;52.806;18.270;2023-02-14T15:34:34;102468.88;;;6.57;100.00